createdAt,value
2024-05-09T00:03:07.134Z,54.04
2024-05-09T00:06:34.255Z,54.38
2024-05-09T00:10:05.527Z,54.42
2024-05-09T00:13:34.440Z,54.47
2024-05-09T00:17:00.907Z,54.75
2024-05-09T00:20:36.476Z,54.93
2024-05-09T00:24:07.637Z,54.95
2024-05-09T00:27:35.088Z,55.05
2024-05-09T00:31:03.489Z,55.57
2024-05-09T00:34:30.519Z,55.40
2024-05-09T00:37:59.084Z,55.86
2024-05-09T00:41:25.741Z,55.86
2024-05-09T00:44:53.235Z,55.97
2024-05-09T00:48:24.583Z,56.41
2024-05-09T00:51:55.457Z,56.47
2024-05-09T00:55:25.046Z,56.41
2024-05-09T00:58:54.763Z,56.59
2024-05-09T01:02:24.972Z,56.80
2024-05-09T01:05:57.934Z,56.86
2024-05-09T01:09:26.411Z,57.37
2024-05-09T01:12:53.655Z,57.76
2024-05-09T01:16:21.076Z,57.67
2024-05-09T01:19:51.080Z,57.37
2024-05-09T01:23:22.125Z,57.97
2024-05-09T01:26:49.417Z,58.24
2024-05-09T01:30:20.984Z,58.42
2024-05-09T01:33:51.830Z,58.75
2024-05-09T01:37:19.263Z,58.75
2024-05-09T01:40:47.011Z,58.96
2024-05-09T01:44:13.677Z,59.15
2024-05-09T01:47:40.606Z,59.54
2024-05-09T01:51:10.663Z,59.65
2024-05-09T01:54:37.620Z,59.93
2024-05-09T01:58:04.378Z,60.08
2024-05-09T02:01:31.486Z,60.36
2024-05-09T02:05:17.760Z,60.47
2024-05-09T02:08:47.670Z,60.64
2024-05-09T02:12:18.010Z,60.75
2024-05-09T02:15:45.395Z,61.04
2024-05-09T02:19:11.823Z,61.18
2024-05-09T02:22:38.748Z,61.57
2024-05-09T02:26:05.733Z,61.80
2024-05-09T02:29:32.370Z,62.20
2024-05-09T02:32:59.475Z,62.41
2024-05-09T02:36:25.914Z,62.62
2024-05-09T02:39:52.714Z,62.86
2024-05-09T02:43:19.497Z,62.93
2024-05-09T02:46:46.644Z,63.28
2024-05-09T02:50:16.234Z,63.69
2024-05-09T02:53:47.468Z,63.75
2024-05-09T02:57:13.378Z,64.04
2024-05-09T03:00:42.210Z,64.23
2024-05-09T03:04:10.894Z,64.61
2024-05-09T03:07:38.236Z,64.66
2024-05-09T03:11:05.147Z,64.80
2024-05-09T03:14:34.295Z,64.75
2024-05-09T03:18:01.716Z,64.96
2024-05-09T03:21:29.328Z,65.07
2024-05-09T03:24:57.088Z,65.09
2024-05-09T03:28:24.245Z,65.16
2024-05-09T03:31:51.506Z,65.26
2024-05-09T03:35:19.618Z,65.33
2024-05-09T03:38:45.808Z,65.58
2024-05-09T03:42:11.504Z,65.83
2024-05-09T03:45:37.203Z,66.02
2024-05-09T03:49:02.953Z,66.15
2024-05-09T03:52:28.827Z,66.18
2024-05-09T03:55:54.593Z,66.43
2024-05-09T03:59:20.515Z,66.45
2024-05-09T04:02:48.776Z,66.62
2024-05-09T04:06:23.081Z,66.68
2024-05-09T04:09:48.785Z,66.85
2024-05-09T04:13:14.465Z,66.64
2024-05-09T04:16:40.190Z,66.13
2024-05-09T04:20:10.488Z,65.47
2024-05-09T04:23:36.666Z,64.06
2024-05-09T04:27:02.568Z,62.67
2024-05-09T04:30:37.388Z,61.62
2024-05-09T04:34:06.248Z,60.37
2024-05-09T04:37:32.238Z,59.51
2024-05-09T04:40:58.430Z,59.18
2024-05-09T04:44:24.270Z,58.42
2024-05-09T04:47:50.154Z,57.91
2024-05-09T04:51:16.195Z,57.03
2024-05-09T04:54:42.069Z,55.58
2024-05-09T04:58:09.358Z,54.20
2024-05-09T05:01:35.180Z,53.55
2024-05-09T05:05:01.004Z,52.35
2024-05-09T05:08:26.892Z,51.77
2024-05-09T05:11:53.650Z,50.97
2024-05-09T05:15:19.728Z,50.30
2024-05-09T05:18:45.602Z,49.43
2024-05-09T05:22:11.426Z,49.03
2024-05-09T05:25:37.129Z,48.65
2024-05-09T05:29:03.117Z,48.26
2024-05-09T05:32:31.284Z,47.72
2024-05-09T05:35:57.787Z,46.60
2024-05-09T05:39:23.565Z,46.71
2024-05-09T05:42:49.728Z,45.84
2024-05-09T05:46:15.493Z,44.72
2024-05-09T05:49:41.391Z,44.30
2024-05-09T05:53:10.084Z,43.67
2024-05-09T05:56:36.476Z,42.47
2024-05-09T06:00:03.990Z,41.61
2024-05-09T06:03:38.048Z,41.09
2024-05-09T06:07:04.411Z,40.19
2024-05-09T06:10:37.586Z,39.69
2024-05-09T06:14:06.022Z,40.01
2024-05-09T06:17:31.976Z,39.29
2024-05-09T06:20:58.071Z,39.01
2024-05-09T06:24:23.861Z,38.92
2024-05-09T06:27:49.553Z,39.09
2024-05-09T06:31:15.335Z,38.58
2024-05-09T06:34:41.199Z,37.72
2024-05-09T06:38:09.510Z,38.23
2024-05-09T06:41:35.689Z,38.28
2024-05-09T06:45:01.589Z,37.96
2024-05-09T06:48:27.691Z,38.63
2024-05-09T06:51:53.608Z,38.72
2024-05-09T06:55:19.290Z,38.37
2024-05-09T06:58:45.029Z,37.12
2024-05-09T07:02:10.903Z,37.79
2024-05-09T07:05:36.740Z,38.69
2024-05-09T07:09:02.464Z,38.67
2024-05-09T07:12:28.323Z,37.44
2024-05-09T07:15:54.220Z,37.66
2024-05-09T07:19:20.750Z,37.94
2024-05-09T07:22:46.580Z,37.90
2024-05-09T07:26:12.384Z,37.79
2024-05-09T07:29:38.951Z,38.46
2024-05-09T07:33:05.284Z,38.87
2024-05-09T07:36:31.285Z,38.64
2024-05-09T07:39:57.200Z,38.55
2024-05-09T07:43:22.898Z,39.12
2024-05-09T07:47:48.763Z,39.01
2024-05-09T07:52:23.816Z,39.42
2024-05-09T07:54:22.018Z,39.91
2024-05-09T07:57:47.903Z,39.78
2024-05-09T08:01:13.772Z,39.00
2024-05-09T08:04:39.725Z,39.13
2024-05-09T08:08:07.737Z,39.85
2024-05-09T08:11:35.032Z,39.83
2024-05-09T08:15:00.839Z,38.94
2024-05-09T08:18:27.637Z,39.29
2024-05-09T08:21:53.560Z,39.05
2024-05-09T08:25:19.414Z,39.65
2024-05-09T08:28:45.313Z,39.31
2024-05-09T08:32:13.729Z,38.54
2024-05-09T08:35:39.727Z,39.05
2024-05-09T08:39:05.537Z,38.92
2024-05-09T08:42:37.751Z,38.89
2024-05-09T08:46:06.038Z,38.62
2024-05-09T08:49:32.136Z,39.18
2024-05-09T08:52:58.105Z,38.42
2024-05-09T08:56:28.615Z,38.14
2024-05-09T08:59:56.418Z,37.75
2024-05-09T09:03:27.404Z,38.07
2024-05-09T09:06:58.275Z,38.54
2024-05-09T09:10:31.633Z,38.58
2024-05-09T09:13:58.839Z,35.73
2024-05-09T09:17:24.661Z,35.79
2024-05-09T09:20:50.890Z,35.79
2024-05-09T09:24:16.801Z,35.10
2024-05-09T09:27:44.578Z,32.84
2024-05-09T09:31:10.395Z,33.50
2024-05-09T09:34:36.423Z,34.09
2024-05-09T09:38:05.730Z,33.33
2024-05-09T09:41:32.088Z,33.68
2024-05-09T09:45:04.700Z,33.64
2024-05-09T09:48:32.510Z,32.98
2024-05-09T09:52:00.174Z,32.53
2024-05-09T09:55:26.519Z,33.01
2024-05-09T09:58:53.696Z,32.85
2024-05-09T10:02:19.850Z,32.34
2024-05-09T10:05:47.524Z,32.12
2024-05-09T10:09:16.258Z,32.32
2024-05-09T10:12:52.512Z,32.17
2024-05-09T10:16:22.600Z,32.32
2024-05-09T10:19:48.767Z,33.23
2024-05-09T10:23:28.217Z,32.59
2024-05-09T10:26:54.620Z,32.32
2024-05-09T10:30:33.455Z,32.49
2024-05-09T10:34:03.388Z,32.42
2024-05-09T10:37:30.006Z,33.04
2024-05-09T10:41:00.662Z,33.45
2024-05-09T10:44:26.433Z,33.41
2024-05-09T10:47:52.444Z,33.65
2024-05-09T10:51:19.321Z,33.59
2024-05-09T10:54:49.348Z,32.97
2024-05-09T10:58:19.959Z,33.06
2024-05-09T11:01:46.176Z,33.67
2024-05-09T11:05:13.111Z,34.11
2024-05-09T11:08:39.651Z,33.54
2024-05-09T11:12:06.506Z,33.95
2024-05-09T11:15:40.829Z,34.02
2024-05-09T11:19:12.408Z,33.69
2024-05-09T11:22:38.319Z,33.55
2024-05-09T11:26:05.541Z,34.13
2024-05-09T11:29:39.860Z,34.02
2024-05-09T11:33:06.241Z,33.03
2024-05-09T11:36:32.153Z,33.30
2024-05-09T11:39:58.123Z,33.88
2024-05-09T11:43:23.996Z,34.52
2024-05-09T11:46:49.854Z,34.82
2024-05-09T11:50:22.671Z,34.91
2024-05-09T11:53:55.296Z,34.23
2024-05-09T11:57:21.292Z,33.53
2024-05-09T12:00:47.459Z,33.97
2024-05-09T12:04:13.471Z,33.97
2024-05-09T12:07:39.514Z,33.49
2024-05-09T12:11:05.769Z,33.45
2024-05-09T12:14:31.692Z,33.06
2024-05-09T12:18:00.028Z,32.75
2024-05-09T12:21:27.710Z,32.56
2024-05-09T12:24:55.676Z,32.49
2024-05-09T12:28:22.213Z,32.61
2024-05-09T12:31:48.158Z,32.89
2024-05-09T12:35:13.979Z,32.77
2024-05-09T12:38:40.812Z,32.65
2024-05-09T12:42:07.105Z,32.08
2024-05-09T12:45:32.974Z,32.41
2024-05-09T12:48:59.203Z,32.17
2024-05-09T12:52:25.378Z,32.42
2024-05-09T12:55:56.897Z,32.26
2024-05-09T12:59:26.293Z,32.23
2024-05-09T13:02:52.123Z,32.33
2024-05-09T13:06:17.920Z,32.38
2024-05-09T13:09:43.811Z,32.22
2024-05-09T13:13:11.448Z,32.22
2024-05-09T13:16:37.547Z,31.76
2024-05-09T13:20:04.403Z,31.77
2024-05-09T13:23:31.449Z,30.93
2024-05-09T13:26:57.340Z,30.44
2024-05-09T13:30:29.777Z,30.91
2024-05-09T13:34:04.316Z,31.43
2024-05-09T13:37:30.322Z,30.45
2024-05-09T13:40:56.087Z,30.76
2024-05-09T13:44:22.348Z,30.60
2024-05-09T13:47:48.423Z,30.53
2024-05-09T13:51:14.470Z,31.14
2024-05-09T13:54:40.292Z,31.52
2024-05-09T13:58:06.811Z,31.94
2024-05-09T14:01:32.880Z,32.16
2024-05-09T14:04:58.951Z,32.08
2024-05-09T14:08:24.972Z,32.11
2024-05-09T14:11:50.804Z,31.98
2024-05-09T14:15:16.667Z,32.04
2024-05-09T14:18:42.564Z,31.74
2024-05-09T14:22:09.039Z,31.69
2024-05-09T14:25:38.692Z,31.65
2024-05-09T14:29:07.393Z,31.66
2024-05-09T14:32:33.330Z,31.59
2024-05-09T14:35:59.605Z,31.42
2024-05-09T14:39:25.395Z,30.96
2024-05-09T14:42:51.291Z,30.87
2024-05-09T14:46:17.189Z,31.00
2024-05-09T14:49:43.175Z,31.10
2024-05-09T14:53:10.285Z,30.70
2024-05-09T14:56:36.364Z,30.60
2024-05-09T15:00:02.803Z,31.23
2024-05-09T15:03:29.840Z,31.70
2024-05-09T15:06:56.505Z,31.74
2024-05-09T15:10:31.099Z,32.00
2024-05-09T15:14:00.620Z,32.41
2024-05-09T15:17:26.527Z,32.58
2024-05-09T15:20:52.490Z,32.50
2024-05-09T15:24:18.441Z,32.71
2024-05-09T15:27:45.276Z,32.68
2024-05-09T15:31:11.085Z,32.94
2024-05-09T15:34:36.901Z,32.70
2024-05-09T15:38:05.802Z,32.68
2024-05-09T15:41:31.547Z,32.70
2024-05-09T15:44:57.422Z,32.56
2024-05-09T15:48:23.518Z,32.49
2024-05-09T15:51:49.367Z,32.43
2024-05-09T15:55:15.548Z,32.47
2024-05-09T15:58:41.419Z,32.47
2024-05-09T16:02:07.687Z,32.57
2024-05-09T16:05:33.873Z,32.64
2024-05-09T16:09:00.310Z,32.51
2024-05-09T16:12:26.138Z,32.57
2024-05-09T16:15:52.069Z,32.71
2024-05-09T16:19:18.134Z,32.72
2024-05-09T16:22:43.826Z,32.52
2024-05-09T16:26:09.602Z,32.42
2024-05-09T16:29:35.305Z,32.42
2024-05-09T16:33:01.112Z,32.58
2024-05-09T16:36:27.188Z,32.64
2024-05-09T16:39:52.904Z,32.66
2024-05-09T16:43:19.048Z,32.53
2024-05-09T16:46:45.035Z,32.64
2024-05-09T16:50:15.797Z,32.62
2024-05-09T16:53:44.920Z,32.91
2024-05-09T16:57:10.713Z,33.23
2024-05-09T17:00:41.462Z,33.27
2024-05-09T17:04:10.148Z,33.36
2024-05-09T17:07:36.173Z,33.51
2024-05-09T17:11:02.236Z,33.67
2024-05-09T17:14:28.127Z,33.92
2024-05-09T17:17:53.967Z,33.96
2024-05-09T17:21:20.003Z,34.20
2024-05-09T17:24:45.707Z,34.14
2024-05-09T17:28:12.412Z,33.93
2024-05-09T17:31:38.557Z,34.24
2024-05-09T17:35:04.752Z,34.38
2024-05-09T17:38:30.647Z,34.43
2024-05-09T17:41:56.345Z,34.71
2024-05-09T17:45:22.833Z,34.79
2024-05-09T17:48:48.596Z,34.89
2024-05-09T17:52:14.814Z,35.16
2024-05-09T17:55:41.365Z,35.47
2024-05-09T17:59:09.921Z,35.53
2024-05-09T18:02:35.991Z,35.80
2024-05-09T18:06:02.077Z,35.98
2024-05-09T18:09:28.008Z,36.26
2024-05-09T18:12:53.777Z,36.44
2024-05-09T18:16:20.027Z,36.73
2024-05-09T18:19:45.894Z,36.96
2024-05-09T18:23:12.812Z,37.15
2024-05-09T18:26:39.074Z,37.37
2024-05-09T18:30:09.372Z,37.60
2024-05-09T18:33:35.663Z,37.72
2024-05-09T18:37:04.324Z,38.01
2024-05-09T18:40:34.621Z,38.20
2024-05-09T18:44:02.774Z,38.62
2024-05-09T18:47:28.641Z,38.90
2024-05-09T18:50:54.551Z,39.13
2024-05-09T18:54:20.800Z,39.45
2024-05-09T18:57:46.690Z,39.67
2024-05-09T19:01:13.123Z,39.93
2024-05-09T19:04:39.236Z,40.17
2024-05-09T19:08:05.894Z,40.73
2024-05-09T19:11:31.708Z,41.04
2024-05-09T19:14:57.665Z,41.43
2024-05-09T19:18:23.449Z,41.77
2024-05-09T19:21:49.395Z,42.04
2024-05-09T19:25:15.184Z,42.26
2024-05-09T19:28:41.015Z,42.54
2024-05-09T19:32:07.868Z,42.80
2024-05-09T19:35:33.708Z,43.10
2024-05-09T19:39:00.094Z,43.50
2024-05-09T19:42:27.333Z,43.66
2024-05-09T19:45:53.005Z,43.92
2024-05-09T19:49:18.994Z,44.25
2024-05-09T19:52:45.132Z,44.56
2024-05-09T19:56:10.887Z,44.85
2024-05-09T19:59:36.718Z,45.04
2024-05-09T20:03:02.685Z,45.11
2024-05-09T20:06:30.212Z,45.39
2024-05-09T20:09:55.977Z,45.68
2024-05-09T20:13:21.944Z,45.71
2024-05-09T20:16:48.679Z,45.78
2024-05-09T20:20:24.567Z,45.76
2024-05-09T20:23:59.084Z,45.95
2024-05-09T20:27:24.768Z,46.02
2024-05-09T20:30:50.546Z,45.96
2024-05-09T20:34:16.327Z,46.23
2024-05-09T20:37:42.155Z,46.00
2024-05-09T20:41:08.215Z,46.09
2024-05-09T20:44:34.495Z,46.05
2024-05-09T20:48:01.059Z,46.12
2024-05-09T20:51:29.902Z,46.27
2024-05-09T20:54:56.342Z,46.16
2024-05-09T20:58:22.757Z,46.34
2024-05-09T21:01:50.040Z,46.32
2024-05-09T21:05:18.833Z,46.64
2024-05-09T21:08:44.937Z,47.11
2024-05-09T21:12:10.879Z,47.72
2024-05-09T21:15:36.845Z,48.02
2024-05-09T21:19:02.938Z,48.39
2024-05-09T21:22:28.823Z,48.47
2024-05-09T21:25:54.620Z,48.88
2024-05-09T21:29:20.698Z,49.17
2024-05-09T21:32:46.656Z,49.72
2024-05-09T21:36:12.615Z,49.92
2024-05-09T21:39:38.567Z,50.12
2024-05-09T21:43:05.041Z,50.45
2024-05-09T21:46:30.997Z,50.85
2024-05-09T21:49:57.125Z,50.92
2024-05-09T21:53:22.952Z,51.12
2024-05-09T21:56:48.627Z,51.31
2024-05-09T22:00:28.096Z,51.39
2024-05-09T22:04:01.201Z,51.56
2024-05-09T22:07:27.165Z,51.82
2024-05-09T22:10:53.011Z,51.89
2024-05-09T22:14:19.806Z,52.09
2024-05-09T22:17:45.981Z,52.33
2024-05-09T22:21:11.869Z,52.54
2024-05-09T22:24:37.843Z,52.82
2024-05-09T22:28:04.541Z,52.95
2024-05-09T22:31:30.627Z,53.15
2024-05-09T22:34:56.721Z,53.18
2024-05-09T22:38:25.935Z,53.31
2024-05-09T22:41:51.926Z,53.59
2024-05-09T22:45:17.824Z,53.90
2024-05-09T22:48:43.768Z,54.12
2024-05-09T22:52:09.956Z,54.67
2024-05-09T22:55:35.841Z,55.00
2024-05-09T22:59:02.084Z,55.21
2024-05-09T23:02:28.086Z,55.39
2024-05-09T23:05:53.851Z,55.85
2024-05-09T23:09:19.566Z,55.94
2024-05-09T23:12:45.600Z,56.26
2024-05-09T23:16:11.734Z,56.37
2024-05-09T23:19:37.647Z,56.60
2024-05-09T23:23:03.674Z,56.78
2024-05-09T23:26:29.528Z,57.00
2024-05-09T23:29:55.196Z,57.15
2024-05-09T23:33:21.187Z,57.34
2024-05-09T23:36:47.023Z,57.46
2024-05-09T23:40:18.497Z,57.77
2024-05-09T23:43:45.080Z,57.97
2024-05-09T23:47:11.141Z,58.92
2024-05-09T23:50:38.912Z,59.69
2024-05-09T23:54:08.274Z,59.85
2024-05-09T23:57:34.039Z,59.57
